Time;durP1;ratioP1;P1;durP2;ratioP2;P2;SDS_P1;SDS_P2;PMS_P1;PMS_P2;Temp;Humidity;BMP_temperature;BMP_pressure;BME280_temperature;BME280_humidity;BME280_pressure;Samples;Min_cycle;Max_cycle;Signal;HPM_P1;HPM_P2
2022/12/16 00:00:24;;;;;;;15.60;14.57;;;19.80;40.10;;;;;;5014987;28;20529;-55
2022/12/16 00:02:51;;;;;;;15.23;14.33;;;19.80;40.00;;;;;;5029952;28;20827;-55
2022/12/16 00:05:19;;;;;;;15.30;14.40;;;19.80;40.10;;;;;;5026947;28;20528;-56
2022/12/16 00:07:47;;;;;;;14.10;13.30;;;19.70;40.00;;;;;;5025965;28;20458;-57
2022/12/16 00:10:14;;;;;;;14.60;13.90;;;19.70;40.00;;;;;;5024964;28;20449;-59
2022/12/16 00:12:40;;;;;;;15.43;14.33;;;19.70;40.00;;;;;;5018912;28;20925;-58
2022/12/16 00:15:08;;;;;;;15.00;14.00;;;19.70;40.10;;;;;;5030347;28;20441;-58
2022/12/16 00:17:35;;;;;;;14.80;13.90;;;19.70;40.10;;;;;;5053606;28;20563;-58
2022/12/16 00:20:02;;;;;;;14.77;13.90;;;19.70;40.10;;;;;;5044232;28;20902;-58
2022/12/16 00:22:30;;;;;;;15.87;14.87;;;19.70;40.10;;;;;;5033713;28;20908;-57
2022/12/16 00:24:57;;;;;;;15.00;13.90;;;19.70;40.10;;;;;;5027950;28;20535;-57
2022/12/16 00:27:24;;;;;;;13.83;13.13;;;19.70;40.10;;;;;;5016946;28;20532;-56
2022/12/16 00:29:51;;;;;;;15.07;14.00;;;19.70;40.10;;;;;;5032592;28;20468;-56
2022/12/16 00:32:18;;;;;;;13.80;13.00;;;19.70;40.10;;;;;;5031824;28;20517;-55
2022/12/16 00:34:45;;;;;;;14.50;13.60;;;19.70;40.10;;;;;;5017688;28;20446;-56
2022/12/16 00:37:13;;;;;;;15.23;14.33;;;19.70;40.10;;;;;;5014710;28;20485;-58
2022/12/16 00:39:41;;;;;;;15.83;14.93;;;19.70;40.10;;;;;;5038207;28;20468;-60
2022/12/16 00:42:07;;;;;;;14.50;13.50;;;19.70;40.10;;;;;;5043200;28;21020;-58
2022/12/16 00:44:34;;;;;;;15.27;14.27;;;19.70;40.10;;;;;;5020582;28;20442;-56
2022/12/16 00:47:01;;;;;;;15.17;14.10;;;19.70;40.20;;;;;;5014678;28;20442;-57
2022/12/16 00:49:28;;;;;;;13.73;12.93;;;19.70;40.20;;;;;;5015734;28;20994;-57
2022/12/16 00:51:55;;;;;;;15.57;14.47;;;19.70;40.20;;;;;;5013713;28;20505;-59
2022/12/16 00:54:22;;;;;;;14.57;13.57;;;19.60;40.10;;;;;;5032827;28;20528;-57
2022/12/16 00:56:50;;;;;;;14.60;13.70;;;19.60;40.20;;;;;;5026290;28;20561;-59
2022/12/16 00:59:17;;;;;;;16.13;15.13;;;19.60;40.20;;;;;;5027968;28;20912;-56
2022/12/16 01:01:43;;;;;;;15.97;14.90;;;19.60;40.10;;;;;;5015810;28;20450;-55
2022/12/16 01:04:10;;;;;;;16.73;15.53;;;19.60;40.10;;;;;;5030533;28;20445;-56
2022/12/16 01:06:37;;;;;;;15.33;14.33;;;19.70;40.20;;;;;;5013041;28;20438;-59
2022/12/16 01:09:04;;;;;;;15.00;14.07;;;19.70;40.20;;;;;;5013906;28;20474;-55
2022/12/16 01:11:31;;;;;;;15.17;14.17;;;19.70;40.20;;;;;;5014021;28;20809;-58
2022/12/16 01:13:59;;;;;;;15.53;14.50;;;19.70;40.20;;;;;;5027970;28;20445;-58
2022/12/16 01:16:26;;;;;;;14.47;13.57;;;19.60;40.10;;;;;;5022402;28;20572;-57
2022/12/16 01:18:55;;;;;;;15.03;13.93;;;19.60;40.10;;;;;;5030066;28;20560;-58
2022/12/16 01:21:22;;;;;;;15.73;14.67;;;19.70;40.20;;;;;;5032517;28;20542;-56
2022/12/16 01:23:48;;;;;;;14.70;13.73;;;19.60;40.10;;;;;;5020029;28;20450;-60
2022/12/16 01:26:17;;;;;;;15.17;14.30;;;19.60;40.10;;;;;;5051889;28;20436;-57
2022/12/16 01:28:44;;;;;;;16.17;15.17;;;19.60;40.00;;;;;;5045322;28;20461;-59
2022/12/16 01:31:14;;;;;;;15.77;14.80;;;19.60;40.10;;;;;;5032261;28;20445;-58
2022/12/16 01:33:41;;;;;;;15.77;14.57;;;19.60;40.20;;;;;;5032357;28;20868;-58
2022/12/16 01:36:09;;;;;;;14.87;13.80;;;19.60;40.20;;;;;;5032172;28;20432;-57
2022/12/16 01:38:36;;;;;;;15.10;14.07;;;19.60;40.20;;;;;;5027189;28;20465;-58
2022/12/16 01:41:04;;;;;;;15.47;14.57;;;19.60;40.20;;;;;;5031937;28;20528;-58
2022/12/16 01:43:33;;;;;;;14.73;13.83;;;19.70;40.20;;;;;;5015344;28;20446;-56
2022/12/16 01:46:06;;;;;;;15.83;14.83;;;19.70;40.10;;;;;;5032109;28;20532;-57
2022/12/16 01:48:41;;;;;;;15.77;14.67;;;19.70;40.10;;;;;;5036581;23;20489;-59
2022/12/16 01:51:15;;;;;;;14.47;13.60;;;19.70;40.10;;;;;;5043417;28;20431;-57
2022/12/16 01:53:46;;;;;;;15.50;14.50;;;19.70;40.20;;;;;;5037657;28;20449;-57
2022/12/16 01:56:16;;;;;;;15.20;14.20;;;19.70;40.20;;;;;;5031654;28;20528;-58
2022/12/16 01:58:45;;;;;;;15.93;15.03;;;19.60;40.20;;;;;;5031411;28;20465;-56
2022/12/16 02:01:13;;;;;;;15.30;14.40;;;19.60;40.10;;;;;;5023932;28;20524;-56
2022/12/16 02:03:42;;;;;;;14.80;13.83;;;19.60;40.70;;;;;;5023517;28;20449;-58
2022/12/16 02:06:09;;;;;;;16.30;15.00;;;19.60;40.10;;;;;;5029556;28;20449;-57
2022/12/16 02:08:36;;;;;;;17.30;16.00;;;19.70;40.10;;;;;;5023621;28;20476;-55
2022/12/16 02:11:26;;;;;;;15.60;14.60;;;19.70;40.10;;;;;;5011747;28;20937;-58
2022/12/16 02:14:17;;;;;;;15.27;14.37;;;19.70;40.10;;;;;;5011537;28;20528;-56
2022/12/16 02:16:53;;;;;;;15.27;14.37;;;19.70;40.10;;;;;;5011655;28;20477;-56
2022/12/16 02:19:55;;;;;;;14.27;13.37;;;19.70;40.10;;;;;;5011202;28;20560;-58
2022/12/16 02:22:31;;;;;;;13.77;12.90;;;19.70;40.20;;;;;;5015572;28;20946;-57
2022/12/16 02:25:29;;;;;;;13.10;12.23;;;19.60;40.10;;;;;;5022568;28;20460;-57
2022/12/16 02:28:08;;;;;;;15.70;14.70;;;19.70;40.20;;;;;;5018230;28;20437;-56
2022/12/16 02:30:59;;;;;;;15.13;14.23;;;19.60;40.10;;;;;;5023677;28;20457;-55
2022/12/16 02:33:50;;;;;;;14.60;13.60;;;19.60;40.00;;;;;;5015690;28;20534;-54
2022/12/16 02:36:26;;;;;;;14.00;13.10;;;19.70;40.10;;;;;;5025776;28;20536;-55
2022/12/16 02:38:59;;;;;;;14.50;13.50;;;19.70;40.10;;;;;;5021393;28;20572;-57
2022/12/16 02:41:37;;;;;;;15.30;14.20;;;19.70;40.10;;;;;;5027541;28;20453;-58
2022/12/16 02:44:07;;;;;;;14.83;13.73;;;19.70;40.10;;;;;;5019597;28;20535;-59
2022/12/16 02:46:40;;;;;;;16.37;15.20;;;19.60;40.00;;;;;;5018980;28;20450;-55
2022/12/16 02:49:08;;;;;;;15.57;14.57;;;19.60;40.00;;;;;;5021784;28;20898;-58
2022/12/16 02:51:37;;;;;;;14.83;13.83;;;19.60;39.90;;;;;;5011571;28;20532;-57
2022/12/16 02:54:07;;;;;;;15.53;14.50;;;19.70;39.90;;;;;;5011564;28;21042;-58
2022/12/16 02:56:46;;;;;;;16.60;15.50;;;19.70;39.80;;;;;;5011514;28;20450;-58
2022/12/16 02:59:23;;;;;;;16.20;15.00;;;19.60;39.70;;;;;;5019996;28;20481;-57
2022/12/16 03:01:57;;;;;;;16.10;15.07;;;19.60;39.80;;;;;;5019370;28;20540;-55
2022/12/16 03:04:31;;;;;;;15.60;14.60;;;19.60;39.80;;;;;;5029606;28;21024;-59
2022/12/16 03:07:01;;;;;;;15.33;14.43;;;19.60;39.90;;;;;;5018355;28;20871;-58
2022/12/16 03:09:32;;;;;;;15.20;14.30;;;19.60;40.00;;;;;;5029274;28;20573;-55
2022/12/16 03:12:03;;;;;;;15.80;14.50;;;19.60;40.00;;;;;;5015040;28;20537;-56
2022/12/16 03:14:34;;;;;;;15.83;14.77;;;19.60;40.00;;;;;;5015116;28;20528;-58
2022/12/16 03:17:03;;;;;;;15.00;14.00;;;19.70;39.90;;;;;;5032422;28;20569;-56
2022/12/16 03:19:31;;;;;;;15.20;14.20;;;19.70;40.00;;;;;;5023925;28;20460;-57
2022/12/16 03:22:04;;;;;;;14.87;13.90;;;19.70;40.00;;;;;;5034789;28;20441;-57
2022/12/16 03:24:31;;;;;;;15.40;14.40;;;19.60;39.90;;;;;;5033017;28;20536;-55
2022/12/16 03:27:06;;;;;;;16.23;14.93;;;19.70;39.90;;;;;;5031422;28;20534;-58
2022/12/16 03:29:41;;;;;;;14.53;13.53;;;19.70;39.90;;;;;;5054405;28;20467;-59
2022/12/16 03:32:14;;;;;;;15.90;14.80;;;19.70;39.90;;;;;;5054624;28;20439;-56
2022/12/16 03:34:46;;;;;;;15.67;14.60;;;19.70;40.00;;;;;;5034193;28;20457;-58
2022/12/16 03:37:13;;;;;;;16.50;15.40;;;19.70;39.90;;;;;;5034498;28;20549;-55
2022/12/16 03:39:44;;;;;;;14.37;13.47;;;19.70;39.80;;;;;;5032567;28;20475;-55
2022/12/16 03:42:12;;;;;;;15.13;14.23;;;19.70;39.90;;;;;;5015107;28;21016;-58
2022/12/16 03:44:39;;;;;;;13.83;12.93;;;19.70;39.90;;;;;;5019874;28;20468;-58
2022/12/16 03:47:06;;;;;;;15.90;14.90;;;19.70;39.90;;;;;;5031921;28;20524;-57
2022/12/16 03:49:34;;;;;;;16.23;15.20;;;19.70;40.00;;;;;;5019199;28;20477;-56
2022/12/16 03:52:01;;;;;;;15.20;14.20;;;19.70;40.00;;;;;;5030582;28;20888;-59
2022/12/16 03:54:28;;;;;;;14.67;13.77;;;19.70;40.00;;;;;;5030096;28;20453;-58
2022/12/16 03:56:55;;;;;;;16.37;15.33;;;19.70;40.00;;;;;;5021067;28;20449;-55
2022/12/16 03:59:22;;;;;;;16.40;15.37;;;19.70;39.90;;;;;;5030625;28;20462;-55
2022/12/16 04:01:49;;;;;;;16.80;15.60;;;19.70;39.80;;;;;;5020560;28;20851;-57
2022/12/16 04:04:17;;;;;;;16.17;15.03;;;19.70;39.80;;;;;;5028650;28;20442;-56
2022/12/16 04:07:18;;;;;;;17.53;16.50;;;19.70;39.80;;;;;;5028277;28;20452;-58
2022/12/16 04:09:32;;;;;;;18.00;16.77;;;19.70;39.70;;;;;;5018943;28;20469;-57
2022/12/16 04:25:46;;;;;;;17.63;16.23;;;19.90;39.50;;;;;;5019880;28;20852;-55
2022/12/16 04:28:13;;;;;;;15.17;14.37;;;19.90;39.40;;;;;;5015202;28;20446;-57
2022/12/16 04:30:40;;;;;;;16.93;15.73;;;19.90;39.40;;;;;;5027141;28;20456;-58
